Pilsen, Czech Republic
Current Conditions -  °F | °C
As of 4:00 PM on Wednesday 28 Jan 2015 (Local Time) from LKLN Reporting Station
Overcast Overcast  
Wind Chill: 28°   Ceiling: 1800
Heat Index: 36°   Visibility: 6mi
Dew Point: 32°   Wind: 12mph
Humidity: 87%   Direction: 230°SW
Pressure: 29.85"   Gusts: NA
Location:  49.75°N, 13.4°E
Report Text: LKLN 281400Z AUTO 23010KT 9999 OVC018 02/M00 Q1011
Loading
Personal Weather Stations






























Interactive Weather Map New forecast layout! Learn more

10-Day Weather Forecast

Advertisements
Track Severe Weather on mobile